BVX44N FAOR-FAKM
Flight info
| Callsign | BVX44N |
|---|---|
| Flight time | 1h 44m |
| Altitude | 8500 |
| Route | GAV5B GAV/N0175F100 DCT UTEBA Q10 APMIN DCT APDUR DCT KYV |
| Aircraft | C208/L-SDFGR/C |
Departure
| Time | 2026-04-26 11:23 |
|---|---|
| Airport | O.R. Tambo International Airport (FAOR) |
Arrival
| Time | 2026-04-26 13:08 |
|---|---|
| Airport | Kimberley Airport (FAKM) |
| Time | Latitude | Longitude | Altitude | Speed | Heading |
|---|---|---|---|---|---|
| 2026-04-26 10:51 | -26.12549 | 28.24644 | 5524 ft | 0 kts | 184° |
| 2026-04-26 11:11 | -26.12551 | 28.24643 | 5524 ft | 0 kts | 216° |
| 2026-04-26 11:14 | -26.12551 | 28.24639 | 5524 ft | 1 kts | 290° |
| 2026-04-26 11:15 | -26.12544 | 28.24635 | 5524 ft | 2 kts | 341° |
| 2026-04-26 11:15 | -26.12524 | 28.24620 | 5525 ft | 5 kts | 322° |
| 2026-04-26 11:15 | -26.12508 | 28.24606 | 5525 ft | 1 kts | 321° |
| 2026-04-26 11:15 | -26.12496 | 28.24597 | 5525 ft | 3 kts | 327° |
| 2026-04-26 11:16 | -26.12481 | 28.24587 | 5525 ft | 1 kts | 328° |
| 2026-04-26 11:16 | -26.12459 | 28.24573 | 5525 ft | 7 kts | 347° |
| 2026-04-26 11:16 | -26.12388 | 28.24565 | 5524 ft | 14 kts | 357° |
| 2026-04-26 11:16 | -26.12291 | 28.24553 | 5521 ft | 12 kts | 333° |
| 2026-04-26 11:17 | -26.12275 | 28.24494 | 5521 ft | 7 kts | 278° |
| 2026-04-26 11:17 | -26.12266 | 28.24441 | 5523 ft | 6 kts | 282° |
| 2026-04-26 11:17 | -26.12269 | 28.24393 | 5525 ft | 7 kts | 240° |
| 2026-04-26 11:17 | -26.12327 | 28.24361 | 5526 ft | 13 kts | 195° |
| 2026-04-26 11:18 | -26.12432 | 28.24329 | 5526 ft | 18 kts | 195° |
| 2026-04-26 11:18 | -26.12563 | 28.24290 | 5530 ft | 20 kts | 197° |
| 2026-04-26 11:18 | -26.12705 | 28.24244 | 5535 ft | 23 kts | 193° |
| 2026-04-26 11:18 | -26.12869 | 28.24195 | 5537 ft | 26 kts | 197° |
| 2026-04-26 11:19 | -26.13051 | 28.24141 | 5542 ft | 29 kts | 186° |
| 2026-04-26 11:19 | -26.13147 | 28.24106 | 5540 ft | 0 kts | 186° |
| 2026-04-26 11:19 | -26.13167 | 28.24101 | 5540 ft | 8 kts | 192° |
| 2026-04-26 11:20 | -26.13261 | 28.24073 | 5545 ft | 17 kts | 201° |
| 2026-04-26 11:20 | -26.13294 | 28.24049 | 5546 ft | 0 kts | 217° |
| 2026-04-26 11:20 | -26.13329 | 28.24011 | 5545 ft | 11 kts | 253° |
| 2026-04-26 11:20 | -26.13282 | 28.23917 | 5541 ft | 18 kts | 316° |
| 2026-04-26 11:21 | -26.13164 | 28.23895 | 5542 ft | 18 kts | 16° |
| 2026-04-26 11:21 | -26.12983 | 28.23951 | 5539 ft | 41 kts | 15° |
| 2026-04-26 11:21 | -26.12598 | 28.24069 | 5535 ft | 72 kts | 15° |
| 2026-04-26 11:21 | -26.12061 | 28.24244 | 5548 ft | 88 kts | 17° |
| 2026-04-26 11:22 | -26.11506 | 28.24474 | 5563 ft | 82 kts | 9° |
| 2026-04-26 11:22 | -26.10950 | 28.24627 | 5670 ft | 82 kts | 6° |
| 2026-04-26 11:22 | -26.10387 | 28.24767 | 5788 ft | 84 kts | 4° |
| 2026-04-26 11:22 | -26.09814 | 28.24871 | 5922 ft | 86 kts | 359° |
| 2026-04-26 11:23 | -26.09202 | 28.24899 | 6017 ft | 92 kts | 358° |
| 2026-04-26 11:23 | -26.08557 | 28.24951 | 6144 ft | 94 kts | 357° |
| 2026-04-26 11:23 | -26.07887 | 28.25052 | 6318 ft | 103 kts | 7° |
| 2026-04-26 11:23 | -26.07117 | 28.25256 | 6371 ft | 119 kts | 7° |
| 2026-04-26 11:24 | -26.06328 | 28.25436 | 6618 ft | 116 kts | 7° |
| 2026-04-26 11:24 | -26.05537 | 28.25605 | 6864 ft | 114 kts | 6° |
| 2026-04-26 11:24 | -26.04761 | 28.25656 | 7054 ft | 109 kts | 343° |
| 2026-04-26 11:24 | -26.04183 | 28.25216 | 7267 ft | 100 kts | 292° |
| 2026-04-26 11:25 | -26.04303 | 28.24468 | 7275 ft | 111 kts | 238° |
| 2026-04-26 11:25 | -26.04802 | 28.23774 | 7319 ft | 120 kts | 229° |
| 2026-04-26 11:25 | -26.05410 | 28.23097 | 7452 ft | 127 kts | 227° |
| 2026-04-26 11:25 | -26.06060 | 28.22418 | 7659 ft | 127 kts | 225° |
| 2026-04-26 11:26 | -26.06736 | 28.21819 | 7941 ft | 123 kts | 221° |
| 2026-04-26 11:26 | -26.07415 | 28.21223 | 8114 ft | 126 kts | 217° |
| 2026-04-26 11:26 | -26.08150 | 28.20658 | 8207 ft | 130 kts | 214° |
| 2026-04-26 11:26 | -26.08922 | 28.20163 | 8396 ft | 128 kts | 210° |
| 2026-04-26 11:27 | -26.09645 | 28.19576 | 8530 ft | 132 kts | 235° |
| 2026-04-26 11:27 | -26.10200 | 28.18731 | 8674 ft | 139 kts | 233° |
| 2026-04-26 11:27 | -26.10796 | 28.17854 | 8823 ft | 144 kts | 233° |
| 2026-04-26 11:27 | -26.11382 | 28.16967 | 8955 ft | 141 kts | 239° |
| 2026-04-26 11:28 | -26.11949 | 28.16096 | 9106 ft | 138 kts | 232° |
| 2026-04-26 11:28 | -26.12569 | 28.15271 | 9247 ft | 138 kts | 230° |
| 2026-04-26 11:28 | -26.13204 | 28.14476 | 9407 ft | 137 kts | 229° |
| 2026-04-26 11:28 | -26.13851 | 28.13685 | 9564 ft | 140 kts | 229° |
| 2026-04-26 11:29 | -26.14502 | 28.12888 | 9753 ft | 137 kts | 229° |
| 2026-04-26 11:29 | -26.15141 | 28.12112 | 9902 ft | 135 kts | 228° |
| 2026-04-26 11:29 | -26.15775 | 28.11342 | 10099 ft | 135 kts | 229° |
| 2026-04-26 11:29 | -26.16400 | 28.10576 | 10298 ft | 131 kts | 228° |
| 2026-04-26 11:30 | -26.17005 | 28.09842 | 10490 ft | 127 kts | 228° |
| 2026-04-26 11:30 | -26.17392 | 28.09370 | 10620 ft | 123 kts | 228° |
| 2026-04-26 11:30 | -26.18149 | 28.08452 | 10871 ft | 118 kts | 228° |
| 2026-04-26 11:30 | -26.18692 | 28.07790 | 11062 ft | 113 kts | 227° |
| 2026-04-26 11:31 | -26.19214 | 28.07156 | 11233 ft | 109 kts | 228° |
| 2026-04-26 11:31 | -26.19725 | 28.06532 | 11399 ft | 108 kts | 228° |
| 2026-04-26 11:31 | -26.20231 | 28.05918 | 11573 ft | 107 kts | 229° |
| 2026-04-26 11:31 | -26.20725 | 28.05314 | 11754 ft | 104 kts | 229° |
| 2026-04-26 11:32 | -26.21213 | 28.04723 | 11891 ft | 105 kts | 229° |
| 2026-04-26 11:32 | -26.21707 | 28.04119 | 12013 ft | 106 kts | 229° |
| 2026-04-26 11:32 | -26.22209 | 28.03507 | 12135 ft | 108 kts | 229° |
| 2026-04-26 11:32 | -26.22714 | 28.02890 | 12260 ft | 108 kts | 229° |
| 2026-04-26 11:33 | -26.23222 | 28.02270 | 12387 ft | 109 kts | 229° |
| 2026-04-26 11:33 | -26.23562 | 28.01856 | 12467 ft | 110 kts | 229° |
| 2026-04-26 11:33 | -26.24229 | 28.01019 | 12633 ft | 108 kts | 232° |
| 2026-04-26 11:33 | -26.24563 | 28.00597 | 12720 ft | 108 kts | 231° |
| 2026-04-26 11:34 | -26.25072 | 27.99972 | 12855 ft | 110 kts | 231° |
| 2026-04-26 11:34 | -26.25593 | 27.99339 | 12970 ft | 114 kts | 231° |
| 2026-04-26 11:34 | -26.26154 | 27.98649 | 12982 ft | 127 kts | 231° |
| 2026-04-26 11:34 | -26.26770 | 27.97891 | 12985 ft | 137 kts | 230° |
| 2026-04-26 11:35 | -26.27425 | 27.97082 | 12987 ft | 145 kts | 230° |
| 2026-04-26 11:35 | -26.28120 | 27.96229 | 12985 ft | 153 kts | 230° |
| 2026-04-26 11:35 | -26.28848 | 27.95334 | 12982 ft | 158 kts | 230° |
| 2026-04-26 11:35 | -26.29600 | 27.94411 | 12983 ft | 163 kts | 230° |
| 2026-04-26 11:36 | -26.30370 | 27.93471 | 12980 ft | 166 kts | 230° |
| 2026-04-26 11:36 | -26.31150 | 27.92517 | 12980 ft | 167 kts | 230° |
| 2026-04-26 11:36 | -26.31934 | 27.91557 | 12984 ft | 168 kts | 230° |
| 2026-04-26 11:36 | -26.32723 | 27.90591 | 12982 ft | 169 kts | 230° |
| 2026-04-26 11:37 | -26.33517 | 27.89624 | 12986 ft | 169 kts | 230° |
| 2026-04-26 11:37 | -26.34308 | 27.88654 | 12986 ft | 169 kts | 230° |
| 2026-04-26 11:37 | -26.35105 | 27.87680 | 12984 ft | 170 kts | 230° |
| 2026-04-26 11:37 | -26.35901 | 27.86710 | 12981 ft | 170 kts | 230° |
| 2026-04-26 11:38 | -26.36683 | 27.85752 | 12979 ft | 168 kts | 230° |
| 2026-04-26 11:38 | -26.37461 | 27.84805 | 12974 ft | 163 kts | 230° |
| 2026-04-26 11:38 | -26.38224 | 27.83898 | 12972 ft | 159 kts | 226° |
| 2026-04-26 11:38 | -26.38984 | 27.83029 | 12976 ft | 155 kts | 229° |
| 2026-04-26 11:39 | -26.39694 | 27.82135 | 12974 ft | 153 kts | 231° |
| 2026-04-26 11:39 | -26.40399 | 27.81252 | 12966 ft | 152 kts | 230° |
| 2026-04-26 11:39 | -26.41107 | 27.80383 | 12976 ft | 150 kts | 230° |
| 2026-04-26 11:39 | -26.41811 | 27.79521 | 12974 ft | 149 kts | 230° |
| 2026-04-26 11:40 | -26.42510 | 27.78666 | 12971 ft | 149 kts | 230° |
| 2026-04-26 11:40 | -26.43209 | 27.77808 | 12973 ft | 149 kts | 230° |
| 2026-04-26 11:40 | -26.43908 | 27.76952 | 12974 ft | 149 kts | 230° |
| 2026-04-26 11:40 | -26.44607 | 27.76095 | 12973 ft | 149 kts | 230° |
| 2026-04-26 11:41 | -26.45304 | 27.75240 | 12974 ft | 149 kts | 230° |
| 2026-04-26 11:42 | -26.50151 | 27.69290 | 12970 ft | 148 kts | 230° |
| 2026-04-26 11:43 | -26.50845 | 27.68439 | 12970 ft | 148 kts | 230° |
| 2026-04-26 11:43 | -26.51535 | 27.67584 | 12968 ft | 148 kts | 232° |
| 2026-04-26 11:43 | -26.52147 | 27.66681 | 12961 ft | 148 kts | 234° |
| 2026-04-26 11:43 | -26.52778 | 27.65773 | 12961 ft | 148 kts | 234° |
| 2026-04-26 11:44 | -26.53408 | 27.64863 | 12962 ft | 147 kts | 234° |
| 2026-04-26 11:44 | -26.54034 | 27.63961 | 12962 ft | 147 kts | 234° |
| 2026-04-26 11:44 | -26.54660 | 27.63053 | 12961 ft | 147 kts | 234° |
| 2026-04-26 11:44 | -26.55287 | 27.62145 | 12959 ft | 148 kts | 234° |
| 2026-04-26 11:45 | -26.55914 | 27.61234 | 12960 ft | 148 kts | 234° |
| 2026-04-26 11:45 | -26.56540 | 27.60325 | 12957 ft | 147 kts | 234° |
| 2026-04-26 11:45 | -26.57168 | 27.59417 | 12950 ft | 148 kts | 234° |
| 2026-04-26 11:45 | -26.57793 | 27.58508 | 12944 ft | 147 kts | 234° |
| 2026-04-26 11:46 | -26.58416 | 27.57604 | 12944 ft | 147 kts | 234° |
| 2026-04-26 11:46 | -26.59042 | 27.56697 | 12954 ft | 150 kts | 234° |
| 2026-04-26 11:46 | -26.59681 | 27.55764 | 12959 ft | 152 kts | 234° |
| 2026-04-26 11:46 | -26.60328 | 27.54824 | 12961 ft | 153 kts | 234° |
| 2026-04-26 11:47 | -26.60982 | 27.53873 | 12956 ft | 155 kts | 234° |
| 2026-04-26 11:47 | -26.61640 | 27.52918 | 12960 ft | 155 kts | 234° |
| 2026-04-26 11:47 | -26.62293 | 27.51967 | 12961 ft | 157 kts | 234° |
| 2026-04-26 11:47 | -26.62960 | 27.50998 | 12960 ft | 157 kts | 234° |
| 2026-04-26 11:48 | -26.63627 | 27.50029 | 12969 ft | 157 kts | 234° |
| 2026-04-26 11:48 | -26.64294 | 27.49058 | 12969 ft | 158 kts | 234° |
| 2026-04-26 11:48 | -26.64963 | 27.48085 | 12966 ft | 158 kts | 234° |
| 2026-04-26 11:48 | -26.65630 | 27.47114 | 12958 ft | 157 kts | 234° |
| 2026-04-26 11:49 | -26.66297 | 27.46145 | 12958 ft | 157 kts | 234° |
| 2026-04-26 11:49 | -26.66964 | 27.45173 | 12958 ft | 157 kts | 234° |
| 2026-04-26 11:49 | -26.67632 | 27.44201 | 12959 ft | 158 kts | 234° |
| 2026-04-26 11:49 | -26.68300 | 27.43228 | 12960 ft | 158 kts | 234° |
| 2026-04-26 11:50 | -26.68971 | 27.42250 | 12959 ft | 158 kts | 234° |
| 2026-04-26 11:50 | -26.69642 | 27.41273 | 12959 ft | 159 kts | 234° |
| 2026-04-26 11:50 | -26.70313 | 27.40295 | 12959 ft | 158 kts | 234° |
| 2026-04-26 11:50 | -26.70983 | 27.39319 | 12958 ft | 158 kts | 234° |
| 2026-04-26 11:51 | -26.71652 | 27.38345 | 12962 ft | 157 kts | 234° |
| 2026-04-26 11:51 | -26.72319 | 27.37372 | 12961 ft | 157 kts | 234° |
| 2026-04-26 11:51 | -26.72983 | 27.36403 | 12961 ft | 157 kts | 234° |
| 2026-04-26 11:51 | -26.73644 | 27.35439 | 12960 ft | 156 kts | 234° |
| 2026-04-26 11:52 | -26.74308 | 27.34471 | 12949 ft | 156 kts | 234° |
| 2026-04-26 11:52 | -26.74746 | 27.33831 | 12953 ft | 156 kts | 234° |
| 2026-04-26 11:52 | -26.75629 | 27.32543 | 12951 ft | 156 kts | 234° |
| 2026-04-26 11:52 | -26.76288 | 27.31582 | 12944 ft | 156 kts | 234° |
| 2026-04-26 11:53 | -26.76947 | 27.30619 | 12949 ft | 156 kts | 234° |
| 2026-04-26 11:53 | -26.77606 | 27.29656 | 12947 ft | 156 kts | 234° |
| 2026-04-26 11:53 | -26.78265 | 27.28694 | 12943 ft | 156 kts | 234° |
| 2026-04-26 11:54 | -26.79583 | 27.26769 | 12950 ft | 156 kts | 234° |
| 2026-04-26 11:54 | -26.80241 | 27.25807 | 12950 ft | 156 kts | 234° |
| 2026-04-26 11:54 | -26.80900 | 27.24843 | 12946 ft | 156 kts | 234° |
| 2026-04-26 11:54 | -26.81559 | 27.23879 | 12947 ft | 156 kts | 234° |
| 2026-04-26 11:55 | -26.82216 | 27.22918 | 12944 ft | 155 kts | 234° |
| 2026-04-26 11:55 | -26.82872 | 27.21957 | 12941 ft | 155 kts | 234° |
| 2026-04-26 11:55 | -26.83530 | 27.20995 | 12948 ft | 156 kts | 234° |
| 2026-04-26 11:55 | -26.84188 | 27.20033 | 12949 ft | 156 kts | 234° |
| 2026-04-26 11:56 | -26.84846 | 27.19069 | 12952 ft | 156 kts | 234° |
| 2026-04-26 11:56 | -26.85504 | 27.18105 | 12952 ft | 156 kts | 234° |
| 2026-04-26 11:56 | -26.86171 | 27.17126 | 12870 ft | 160 kts | 234° |
| 2026-04-26 11:56 | -26.86849 | 27.16129 | 12810 ft | 162 kts | 234° |
| 2026-04-26 11:57 | -26.87538 | 27.15120 | 12741 ft | 164 kts | 234° |
| 2026-04-26 11:57 | -26.88233 | 27.14100 | 12670 ft | 165 kts | 234° |
| 2026-04-26 11:57 | -26.88932 | 27.13076 | 12600 ft | 166 kts | 234° |
| 2026-04-26 11:57 | -26.89634 | 27.12046 | 12522 ft | 167 kts | 234° |
| 2026-04-26 11:58 | -26.90338 | 27.11013 | 12457 ft | 167 kts | 234° |
| 2026-04-26 11:58 | -26.91045 | 27.09976 | 12383 ft | 167 kts | 234° |
| 2026-04-26 11:58 | -26.91750 | 27.08943 | 12312 ft | 167 kts | 234° |
| 2026-04-26 11:58 | -26.92456 | 27.07905 | 12235 ft | 167 kts | 234° |
| 2026-04-26 11:59 | -26.93163 | 27.06867 | 12163 ft | 167 kts | 234° |
| 2026-04-26 11:59 | -26.93872 | 27.05828 | 12089 ft | 167 kts | 234° |
| 2026-04-26 11:59 | -26.94576 | 27.04793 | 12017 ft | 167 kts | 235° |
| 2026-04-26 11:59 | -26.95284 | 27.03760 | 11943 ft | 167 kts | 233° |
| 2026-04-26 12:00 | -26.96105 | 27.02836 | 11869 ft | 167 kts | 226° |
| 2026-04-26 12:00 | -26.96940 | 27.01928 | 11797 ft | 167 kts | 227° |
| 2026-04-26 12:00 | -26.97767 | 27.01017 | 11725 ft | 167 kts | 227° |
| 2026-04-26 12:00 | -26.98593 | 27.00106 | 11651 ft | 167 kts | 227° |
| 2026-04-26 12:01 | -26.99419 | 26.99198 | 11580 ft | 166 kts | 227° |
| 2026-04-26 12:01 | -27.00237 | 26.98297 | 11504 ft | 167 kts | 227° |
| 2026-04-26 12:01 | -27.01062 | 26.97387 | 11433 ft | 167 kts | 227° |
| 2026-04-26 12:01 | -27.01893 | 26.96472 | 11361 ft | 167 kts | 227° |
| 2026-04-26 12:02 | -27.02721 | 26.95562 | 11290 ft | 167 kts | 227° |
| 2026-04-26 12:02 | -27.03278 | 26.94946 | 11241 ft | 166 kts | 227° |
| 2026-04-26 12:02 | -27.04369 | 26.93745 | 11145 ft | 166 kts | 227° |
| 2026-04-26 12:02 | -27.05193 | 26.92837 | 11077 ft | 166 kts | 227° |
| 2026-04-26 12:03 | -27.06020 | 26.91925 | 11003 ft | 167 kts | 227° |
| 2026-04-26 12:03 | -27.06846 | 26.91013 | 10933 ft | 166 kts | 227° |
| 2026-04-26 12:03 | -27.07671 | 26.90104 | 10863 ft | 166 kts | 227° |
| 2026-04-26 12:03 | -27.08493 | 26.89196 | 10798 ft | 166 kts | 228° |
| 2026-04-26 12:04 | -27.09316 | 26.88289 | 10728 ft | 166 kts | 228° |
| 2026-04-26 12:04 | -27.10137 | 26.87383 | 10661 ft | 165 kts | 228° |
| 2026-04-26 12:04 | -27.10956 | 26.86478 | 10586 ft | 165 kts | 228° |
| 2026-04-26 12:04 | -27.11775 | 26.85574 | 10515 ft | 165 kts | 229° |
| 2026-04-26 12:05 | -27.12590 | 26.84673 | 10441 ft | 164 kts | 229° |
| 2026-04-26 12:05 | -27.13402 | 26.83776 | 10373 ft | 164 kts | 229° |
| 2026-04-26 12:05 | -27.14216 | 26.82877 | 10303 ft | 165 kts | 229° |
| 2026-04-26 12:05 | -27.15032 | 26.81974 | 10234 ft | 164 kts | 229° |
| 2026-04-26 12:06 | -27.15848 | 26.81074 | 10165 ft | 164 kts | 229° |
| 2026-04-26 12:06 | -27.16661 | 26.80174 | 10096 ft | 164 kts | 229° |
| 2026-04-26 12:06 | -27.17476 | 26.79272 | 10018 ft | 164 kts | 229° |
| 2026-04-26 12:06 | -27.18290 | 26.78372 | 9936 ft | 164 kts | 229° |
| 2026-04-26 12:07 | -27.19094 | 26.77484 | 9930 ft | 160 kts | 229° |
| 2026-04-26 12:07 | -27.19885 | 26.76612 | 9925 ft | 158 kts | 229° |
| 2026-04-26 12:07 | -27.20666 | 26.75747 | 9919 ft | 157 kts | 229° |
| 2026-04-26 12:07 | -27.21436 | 26.74896 | 9919 ft | 155 kts | 229° |
| 2026-04-26 12:08 | -27.22199 | 26.74052 | 9918 ft | 154 kts | 229° |
| 2026-04-26 12:08 | -27.22960 | 26.73209 | 9918 ft | 153 kts | 229° |
| 2026-04-26 12:08 | -27.23717 | 26.72369 | 9919 ft | 152 kts | 229° |
| 2026-04-26 12:08 | -27.24469 | 26.71537 | 9919 ft | 151 kts | 229° |
| 2026-04-26 12:09 | -27.25217 | 26.70710 | 9921 ft | 151 kts | 229° |
| 2026-04-26 12:09 | -27.25966 | 26.69878 | 9921 ft | 151 kts | 229° |
| 2026-04-26 12:09 | -27.26705 | 26.69058 | 9920 ft | 151 kts | 229° |
| 2026-04-26 12:09 | -27.27454 | 26.68228 | 9920 ft | 151 kts | 229° |
| 2026-04-26 12:10 | -27.28213 | 26.67387 | 9916 ft | 152 kts | 229° |
| 2026-04-26 12:10 | -27.28955 | 26.66562 | 9915 ft | 152 kts | 229° |
| 2026-04-26 12:10 | -27.29708 | 26.65727 | 9916 ft | 152 kts | 229° |
| 2026-04-26 12:10 | -27.30461 | 26.64892 | 9916 ft | 152 kts | 229° |
| 2026-04-26 12:11 | -27.31222 | 26.64048 | 9917 ft | 151 kts | 229° |
| 2026-04-26 12:11 | -27.31971 | 26.63216 | 9917 ft | 151 kts | 229° |
| 2026-04-26 12:11 | -27.32719 | 26.62386 | 9913 ft | 151 kts | 229° |
| 2026-04-26 12:11 | -27.33468 | 26.61555 | 9912 ft | 151 kts | 229° |
| 2026-04-26 12:12 | -27.34205 | 26.60735 | 9920 ft | 151 kts | 229° |
| 2026-04-26 12:12 | -27.34955 | 26.59901 | 9921 ft | 151 kts | 229° |
| 2026-04-26 12:12 | -27.35705 | 26.59067 | 9920 ft | 152 kts | 229° |
| 2026-04-26 12:12 | -27.35958 | 26.58786 | 9920 ft | 151 kts | 229° |
| 2026-04-26 12:13 | -27.37202 | 26.57405 | 9916 ft | 151 kts | 229° |
| 2026-04-26 12:13 | -27.37951 | 26.56571 | 9916 ft | 152 kts | 229° |
| 2026-04-26 12:13 | -27.38458 | 26.56006 | 9918 ft | 152 kts | 229° |
| 2026-04-26 12:13 | -27.39211 | 26.55172 | 9920 ft | 151 kts | 229° |
| 2026-04-26 12:14 | -27.39950 | 26.54348 | 9919 ft | 151 kts | 230° |
| 2026-04-26 12:14 | -27.40698 | 26.53514 | 9922 ft | 152 kts | 229° |
| 2026-04-26 12:14 | -27.41460 | 26.52666 | 9923 ft | 152 kts | 229° |
| 2026-04-26 12:14 | -27.42214 | 26.51827 | 9924 ft | 153 kts | 229° |
| 2026-04-26 12:15 | -27.42959 | 26.50997 | 9927 ft | 152 kts | 229° |
| 2026-04-26 12:15 | -27.43712 | 26.50160 | 9926 ft | 152 kts | 230° |
| 2026-04-26 12:15 | -27.44464 | 26.49322 | 9926 ft | 152 kts | 230° |
| 2026-04-26 12:15 | -27.45213 | 26.48487 | 9927 ft | 152 kts | 230° |
| 2026-04-26 12:16 | -27.45964 | 26.47650 | 9923 ft | 152 kts | 230° |
| 2026-04-26 12:16 | -27.46715 | 26.46814 | 9922 ft | 151 kts | 230° |
| 2026-04-26 12:16 | -27.47462 | 26.45981 | 9921 ft | 151 kts | 230° |
| 2026-04-26 12:16 | -27.48210 | 26.45147 | 9923 ft | 152 kts | 230° |
| 2026-04-26 12:17 | -27.48960 | 26.44311 | 9918 ft | 151 kts | 229° |
| 2026-04-26 12:17 | -27.49708 | 26.43475 | 9918 ft | 151 kts | 230° |
| 2026-04-26 12:17 | -27.50454 | 26.42643 | 9921 ft | 151 kts | 230° |
| 2026-04-26 12:17 | -27.51204 | 26.41807 | 9919 ft | 151 kts | 230° |
| 2026-04-26 12:18 | -27.51952 | 26.40972 | 9919 ft | 151 kts | 230° |
| 2026-04-26 12:18 | -27.52697 | 26.40139 | 9920 ft | 151 kts | 230° |
| 2026-04-26 12:18 | -27.53444 | 26.39306 | 9918 ft | 151 kts | 230° |
| 2026-04-26 12:18 | -27.54191 | 26.38472 | 9918 ft | 151 kts | 230° |
| 2026-04-26 12:19 | -27.54934 | 26.37641 | 9915 ft | 150 kts | 230° |
| 2026-04-26 12:19 | -27.55677 | 26.36813 | 9913 ft | 150 kts | 230° |
| 2026-04-26 12:19 | -27.56419 | 26.35983 | 9913 ft | 150 kts | 230° |
| 2026-04-26 12:19 | -27.57160 | 26.35153 | 9912 ft | 150 kts | 230° |
| 2026-04-26 12:20 | -27.57904 | 26.34322 | 9911 ft | 150 kts | 230° |
| 2026-04-26 12:20 | -27.58648 | 26.33490 | 9911 ft | 151 kts | 230° |
| 2026-04-26 12:20 | -27.59391 | 26.32659 | 9910 ft | 150 kts | 230° |
| 2026-04-26 12:20 | -27.60134 | 26.31828 | 9911 ft | 151 kts | 230° |
| 2026-04-26 12:21 | -27.60878 | 26.30996 | 9915 ft | 151 kts | 230° |
| 2026-04-26 12:21 | -27.61622 | 26.30163 | 9914 ft | 151 kts | 230° |
| 2026-04-26 12:21 | -27.62365 | 26.29331 | 9914 ft | 151 kts | 230° |
| 2026-04-26 12:21 | -27.63109 | 26.28499 | 9917 ft | 151 kts | 230° |
| 2026-04-26 12:22 | -27.63855 | 26.27664 | 9910 ft | 151 kts | 230° |
| 2026-04-26 12:22 | -27.64600 | 26.26828 | 9913 ft | 151 kts | 230° |
| 2026-04-26 12:22 | -27.65344 | 26.25995 | 9912 ft | 151 kts | 230° |
| 2026-04-26 12:22 | -27.66091 | 26.25159 | 9907 ft | 151 kts | 230° |
| 2026-04-26 12:23 | -27.66838 | 26.24321 | 9904 ft | 151 kts | 230° |
| 2026-04-26 12:23 | -27.67584 | 26.23484 | 9905 ft | 151 kts | 231° |
| 2026-04-26 12:23 | -27.68322 | 26.22658 | 9905 ft | 151 kts | 230° |
| 2026-04-26 12:23 | -27.69070 | 26.21818 | 9905 ft | 152 kts | 230° |
| 2026-04-26 12:24 | -27.69818 | 26.20980 | 9910 ft | 151 kts | 230° |
| 2026-04-26 12:24 | -27.70564 | 26.20142 | 9911 ft | 151 kts | 230° |
| 2026-04-26 12:24 | -27.71312 | 26.19304 | 9912 ft | 151 kts | 230° |
| 2026-04-26 12:25 | -27.72807 | 26.17625 | 9908 ft | 152 kts | 230° |
| 2026-04-26 12:25 | -27.73555 | 26.16786 | 9908 ft | 152 kts | 230° |
| 2026-04-26 12:25 | -27.74301 | 26.15946 | 9909 ft | 152 kts | 230° |
| 2026-04-26 12:25 | -27.75049 | 26.15108 | 9909 ft | 152 kts | 230° |
| 2026-04-26 12:26 | -27.75797 | 26.14268 | 9906 ft | 152 kts | 230° |
| 2026-04-26 12:26 | -27.76547 | 26.13424 | 9903 ft | 152 kts | 230° |
| 2026-04-26 12:26 | -27.77297 | 26.12581 | 9903 ft | 152 kts | 230° |
| 2026-04-26 12:26 | -27.78045 | 26.11741 | 9907 ft | 152 kts | 231° |
| 2026-04-26 12:27 | -27.78792 | 26.10900 | 9906 ft | 151 kts | 231° |
| 2026-04-26 12:27 | -27.79537 | 26.10064 | 9906 ft | 151 kts | 231° |
| 2026-04-26 12:27 | -27.80281 | 26.09227 | 9906 ft | 151 kts | 231° |
| 2026-04-26 12:27 | -27.81025 | 26.08390 | 9905 ft | 151 kts | 232° |
| 2026-04-26 12:28 | -27.81767 | 26.07555 | 9905 ft | 151 kts | 231° |
| 2026-04-26 12:28 | -27.82509 | 26.06719 | 9906 ft | 151 kts | 231° |
| 2026-04-26 12:28 | -27.83252 | 26.05884 | 9904 ft | 150 kts | 231° |
| 2026-04-26 12:28 | -27.83994 | 26.05049 | 9905 ft | 150 kts | 232° |
| 2026-04-26 12:29 | -27.84733 | 26.04215 | 9902 ft | 150 kts | 231° |
| 2026-04-26 12:29 | -27.85476 | 26.03379 | 9903 ft | 151 kts | 231° |
| 2026-04-26 12:29 | -27.86962 | 26.01704 | 9915 ft | 150 kts | 231° |
| 2026-04-26 12:30 | -27.87684 | 26.00896 | 10039 ft | 143 kts | 232° |
| 2026-04-26 12:30 | -27.88377 | 26.00119 | 10147 ft | 138 kts | 232° |
| 2026-04-26 12:30 | -27.89048 | 25.99363 | 10222 ft | 137 kts | 232° |
| 2026-04-26 12:31 | -27.90430 | 25.97795 | 10224 ft | 143 kts | 232° |
| 2026-04-26 12:31 | -27.91141 | 25.96994 | 10224 ft | 145 kts | 232° |
| 2026-04-26 12:31 | -27.91857 | 25.96184 | 10234 ft | 147 kts | 231° |
| 2026-04-26 12:31 | -27.92583 | 25.95364 | 10235 ft | 148 kts | 231° |
| 2026-04-26 12:32 | -27.93315 | 25.94537 | 10237 ft | 149 kts | 232° |
| 2026-04-26 12:32 | -27.94049 | 25.93708 | 10233 ft | 149 kts | 232° |
| 2026-04-26 12:32 | -27.95519 | 25.92050 | 10236 ft | 150 kts | 232° |
| 2026-04-26 12:33 | -27.96255 | 25.91217 | 10234 ft | 150 kts | 232° |
| 2026-04-26 12:33 | -27.96993 | 25.90383 | 10232 ft | 150 kts | 232° |
| 2026-04-26 12:33 | -27.97732 | 25.89547 | 10238 ft | 150 kts | 232° |
| 2026-04-26 12:33 | -27.98473 | 25.88709 | 10229 ft | 151 kts | 232° |
| 2026-04-26 12:34 | -27.99212 | 25.87874 | 10226 ft | 150 kts | 232° |
| 2026-04-26 12:34 | -27.99949 | 25.87039 | 10231 ft | 150 kts | 232° |
| 2026-04-26 12:34 | -28.00678 | 25.86217 | 10230 ft | 150 kts | 232° |
| 2026-04-26 12:34 | -28.01362 | 25.85349 | 10227 ft | 147 kts | 240° |
| 2026-04-26 12:35 | -28.01973 | 25.84411 | 10233 ft | 147 kts | 240° |
| 2026-04-26 12:35 | -28.02589 | 25.83483 | 10226 ft | 147 kts | 239° |
| 2026-04-26 12:35 | -28.03207 | 25.82556 | 10231 ft | 147 kts | 239° |
| 2026-04-26 12:35 | -28.03820 | 25.81633 | 10228 ft | 147 kts | 239° |
| 2026-04-26 12:36 | -28.04436 | 25.80707 | 10232 ft | 147 kts | 240° |
| 2026-04-26 12:36 | -28.05052 | 25.79779 | 10232 ft | 148 kts | 240° |
| 2026-04-26 12:36 | -28.05669 | 25.78851 | 10223 ft | 147 kts | 240° |
| 2026-04-26 12:36 | -28.06284 | 25.77923 | 10225 ft | 147 kts | 239° |
| 2026-04-26 12:37 | -28.06899 | 25.76999 | 10224 ft | 147 kts | 240° |
| 2026-04-26 12:37 | -28.07512 | 25.76073 | 10228 ft | 147 kts | 239° |
| 2026-04-26 12:37 | -28.08128 | 25.75143 | 10229 ft | 148 kts | 240° |
| 2026-04-26 12:37 | -28.08746 | 25.74213 | 10220 ft | 147 kts | 240° |
| 2026-04-26 12:38 | -28.09361 | 25.73286 | 10228 ft | 147 kts | 240° |
| 2026-04-26 12:38 | -28.09975 | 25.72360 | 10228 ft | 147 kts | 239° |
| 2026-04-26 12:38 | -28.10591 | 25.71430 | 10224 ft | 148 kts | 240° |
| 2026-04-26 12:38 | -28.11209 | 25.70499 | 10229 ft | 148 kts | 240° |
| 2026-04-26 12:39 | -28.11826 | 25.69565 | 10226 ft | 148 kts | 240° |
| 2026-04-26 12:39 | -28.12446 | 25.68631 | 10222 ft | 148 kts | 239° |
| 2026-04-26 12:39 | -28.13062 | 25.67700 | 10227 ft | 148 kts | 239° |
| 2026-04-26 12:39 | -28.13681 | 25.66766 | 10226 ft | 148 kts | 240° |
| 2026-04-26 12:40 | -28.14300 | 25.65829 | 10223 ft | 148 kts | 240° |
| 2026-04-26 12:40 | -28.14920 | 25.64894 | 10223 ft | 148 kts | 240° |
| 2026-04-26 12:40 | -28.15537 | 25.63962 | 10222 ft | 148 kts | 240° |
| 2026-04-26 12:40 | -28.16157 | 25.63023 | 10212 ft | 149 kts | 240° |
| 2026-04-26 12:41 | -28.16769 | 25.62097 | 10211 ft | 149 kts | 241° |
| 2026-04-26 12:41 | -28.17398 | 25.61146 | 10209 ft | 149 kts | 241° |
| 2026-04-26 12:41 | -28.18011 | 25.60221 | 10212 ft | 149 kts | 240° |
| 2026-04-26 12:41 | -28.18630 | 25.59283 | 10212 ft | 149 kts | 241° |
| 2026-04-26 12:42 | -28.19253 | 25.58340 | 10217 ft | 150 kts | 240° |
| 2026-04-26 12:42 | -28.19877 | 25.57395 | 10217 ft | 149 kts | 240° |
| 2026-04-26 12:42 | -28.20497 | 25.56457 | 10215 ft | 148 kts | 240° |
| 2026-04-26 12:42 | -28.21116 | 25.55520 | 10217 ft | 148 kts | 240° |
| 2026-04-26 12:43 | -28.21737 | 25.54581 | 10207 ft | 149 kts | 240° |
| 2026-04-26 12:43 | -28.22359 | 25.53637 | 10211 ft | 149 kts | 240° |
| 2026-04-26 12:43 | -28.22983 | 25.52692 | 10212 ft | 149 kts | 240° |
| 2026-04-26 12:43 | -28.23605 | 25.51749 | 10213 ft | 149 kts | 240° |
| 2026-04-26 12:44 | -28.24226 | 25.50808 | 10204 ft | 149 kts | 240° |
| 2026-04-26 12:44 | -28.24848 | 25.49865 | 10211 ft | 149 kts | 240° |
| 2026-04-26 12:44 | -28.25470 | 25.48920 | 10209 ft | 150 kts | 241° |
| 2026-04-26 12:44 | -28.26094 | 25.47975 | 10208 ft | 150 kts | 241° |
| 2026-04-26 12:45 | -28.26716 | 25.47032 | 10208 ft | 149 kts | 240° |
| 2026-04-26 12:45 | -28.27337 | 25.46090 | 10207 ft | 148 kts | 241° |
| 2026-04-26 12:45 | -28.27948 | 25.45161 | 10208 ft | 149 kts | 241° |
| 2026-04-26 12:45 | -28.28571 | 25.44214 | 10209 ft | 150 kts | 240° |
| 2026-04-26 12:46 | -28.29197 | 25.43263 | 10210 ft | 151 kts | 240° |
| 2026-04-26 12:46 | -28.29823 | 25.42312 | 10213 ft | 150 kts | 240° |
| 2026-04-26 12:46 | -28.30445 | 25.41369 | 10214 ft | 149 kts | 240° |
| 2026-04-26 12:46 | -28.31065 | 25.40427 | 10207 ft | 149 kts | 241° |
| 2026-04-26 12:47 | -28.31687 | 25.39481 | 10202 ft | 150 kts | 240° |
| 2026-04-26 12:47 | -28.32318 | 25.38541 | 10191 ft | 151 kts | 237° |
| 2026-04-26 12:47 | -28.33016 | 25.37651 | 10199 ft | 151 kts | 237° |
| 2026-04-26 12:47 | -28.33701 | 25.36752 | 10200 ft | 151 kts | 237° |
| 2026-04-26 12:48 | -28.34388 | 25.35854 | 10203 ft | 151 kts | 237° |
| 2026-04-26 12:48 | -28.35076 | 25.34957 | 10202 ft | 150 kts | 237° |
| 2026-04-26 12:48 | -28.35763 | 25.34060 | 10202 ft | 150 kts | 237° |
| 2026-04-26 12:48 | -28.36450 | 25.33167 | 10202 ft | 150 kts | 237° |
| 2026-04-26 12:49 | -28.37136 | 25.32270 | 10194 ft | 151 kts | 236° |
| 2026-04-26 12:49 | -28.37827 | 25.31372 | 10192 ft | 150 kts | 237° |
| 2026-04-26 12:49 | -28.38513 | 25.30477 | 10190 ft | 150 kts | 237° |
| 2026-04-26 12:49 | -28.39196 | 25.29586 | 10190 ft | 149 kts | 237° |
| 2026-04-26 12:50 | -28.39879 | 25.28697 | 10192 ft | 150 kts | 237° |
| 2026-04-26 12:50 | -28.40332 | 25.28104 | 10193 ft | 150 kts | 237° |
| 2026-04-26 12:50 | -28.41019 | 25.27208 | 10192 ft | 151 kts | 237° |
| 2026-04-26 12:50 | -28.41706 | 25.26310 | 10184 ft | 151 kts | 236° |
| 2026-04-26 12:51 | -28.42397 | 25.25409 | 10186 ft | 150 kts | 237° |
| 2026-04-26 12:51 | -28.43084 | 25.24512 | 10187 ft | 151 kts | 237° |
| 2026-04-26 12:51 | -28.43772 | 25.23613 | 10186 ft | 151 kts | 237° |
| 2026-04-26 12:51 | -28.44461 | 25.22714 | 10185 ft | 151 kts | 237° |
| 2026-04-26 12:52 | -28.45148 | 25.21815 | 10183 ft | 150 kts | 237° |
| 2026-04-26 12:52 | -28.45836 | 25.20918 | 10187 ft | 151 kts | 237° |
| 2026-04-26 12:52 | -28.46526 | 25.20014 | 10187 ft | 152 kts | 237° |
| 2026-04-26 12:52 | -28.47219 | 25.19108 | 10184 ft | 152 kts | 237° |
| 2026-04-26 12:53 | -28.47909 | 25.18207 | 10186 ft | 151 kts | 236° |
| 2026-04-26 12:53 | -28.48598 | 25.17306 | 10186 ft | 151 kts | 237° |
| 2026-04-26 12:53 | -28.49285 | 25.16407 | 10186 ft | 150 kts | 237° |
| 2026-04-26 12:53 | -28.49961 | 25.15522 | 10186 ft | 150 kts | 237° |
| 2026-04-26 12:54 | -28.50657 | 25.14612 | 10184 ft | 151 kts | 237° |
| 2026-04-26 12:54 | -28.51335 | 25.13724 | 10183 ft | 151 kts | 237° |
| 2026-04-26 12:54 | -28.52023 | 25.12822 | 10188 ft | 151 kts | 237° |
| 2026-04-26 12:54 | -28.52713 | 25.11920 | 10188 ft | 151 kts | 237° |
| 2026-04-26 12:55 | -28.53400 | 25.11018 | 10188 ft | 151 kts | 237° |
| 2026-04-26 12:55 | -28.54089 | 25.10117 | 10188 ft | 151 kts | 237° |
| 2026-04-26 12:55 | -28.54779 | 25.09213 | 10186 ft | 152 kts | 237° |
| 2026-04-26 12:55 | -28.55471 | 25.08304 | 10187 ft | 152 kts | 237° |
| 2026-04-26 12:56 | -28.56168 | 25.07389 | 10144 ft | 155 kts | 237° |
| 2026-04-26 12:56 | -28.56879 | 25.06454 | 10071 ft | 158 kts | 237° |
| 2026-04-26 12:56 | -28.57602 | 25.05504 | 9977 ft | 160 kts | 237° |
| 2026-04-26 12:56 | -28.58338 | 25.04537 | 9884 ft | 163 kts | 236° |
| 2026-04-26 12:57 | -28.59081 | 25.03564 | 9779 ft | 163 kts | 236° |
| 2026-04-26 12:57 | -28.59822 | 25.02592 | 9681 ft | 163 kts | 236° |
| 2026-04-26 12:57 | -28.60565 | 25.01619 | 9585 ft | 163 kts | 236° |
| 2026-04-26 12:58 | -28.62056 | 24.99657 | 9379 ft | 164 kts | 237° |
| 2026-04-26 12:58 | -28.62804 | 24.98675 | 9285 ft | 164 kts | 237° |
| 2026-04-26 12:58 | -28.63555 | 24.97688 | 9179 ft | 165 kts | 237° |
| 2026-04-26 12:58 | -28.64308 | 24.96698 | 9080 ft | 165 kts | 237° |
| 2026-04-26 12:59 | -28.65059 | 24.95711 | 8982 ft | 165 kts | 237° |
| 2026-04-26 12:59 | -28.65808 | 24.94727 | 8883 ft | 164 kts | 237° |
| 2026-04-26 12:59 | -28.66556 | 24.93743 | 8782 ft | 164 kts | 237° |
| 2026-04-26 12:59 | -28.67305 | 24.92756 | 8685 ft | 165 kts | 237° |
| 2026-04-26 13:00 | -28.68058 | 24.91765 | 8587 ft | 166 kts | 237° |
| 2026-04-26 13:00 | -28.68816 | 24.90766 | 8487 ft | 166 kts | 237° |
| 2026-04-26 13:00 | -28.69574 | 24.89770 | 8390 ft | 166 kts | 237° |
| 2026-04-26 13:00 | -28.70329 | 24.88776 | 8293 ft | 166 kts | 237° |
| 2026-04-26 13:01 | -28.71087 | 24.87777 | 8198 ft | 167 kts | 237° |
| 2026-04-26 13:01 | -28.71845 | 24.86779 | 8100 ft | 166 kts | 236° |
| 2026-04-26 13:01 | -28.72600 | 24.85783 | 8002 ft | 166 kts | 237° |
| 2026-04-26 13:01 | -28.73345 | 24.84804 | 7802 ft | 158 kts | 238° |
| 2026-04-26 13:02 | -28.74046 | 24.83890 | 7593 ft | 149 kts | 238° |
| 2026-04-26 13:02 | -28.74719 | 24.83005 | 7375 ft | 146 kts | 238° |
| 2026-04-26 13:02 | -28.75370 | 24.82134 | 7179 ft | 142 kts | 239° |
| 2026-04-26 13:02 | -28.76033 | 24.81302 | 6877 ft | 145 kts | 225° |
| 2026-04-26 13:03 | -28.76855 | 24.80623 | 6547 ft | 145 kts | 229° |
| 2026-04-26 13:03 | -28.77619 | 24.79893 | 6265 ft | 141 kts | 231° |
| 2026-04-26 13:03 | -28.78380 | 24.79223 | 6118 ft | 137 kts | 217° |
| 2026-04-26 13:03 | -28.79296 | 24.78948 | 5979 ft | 139 kts | 191° |
| 2026-04-26 13:04 | -28.80246 | 24.78951 | 5951 ft | 135 kts | 178° |
| 2026-04-26 13:04 | -28.81183 | 24.79125 | 5960 ft | 139 kts | 173° |
| 2026-04-26 13:04 | -28.82145 | 24.79266 | 5981 ft | 139 kts | 178° |
| 2026-04-26 13:04 | -28.83075 | 24.79395 | 6035 ft | 128 kts | 177° |
| 2026-04-26 13:05 | -28.83945 | 24.79535 | 5979 ft | 129 kts | 176° |
| 2026-04-26 13:05 | -28.84849 | 24.79655 | 5841 ft | 131 kts | 192° |
| 2026-04-26 13:05 | -28.85610 | 24.79207 | 5604 ft | 122 kts | 246° |
| 2026-04-26 13:05 | -28.85791 | 24.78331 | 5516 ft | 104 kts | 272° |
| 2026-04-26 13:06 | -28.85888 | 24.77561 | 5476 ft | 97 kts | 271° |
| 2026-04-26 13:06 | -28.85889 | 24.76808 | 5320 ft | 94 kts | 295° |
| 2026-04-26 13:06 | -28.85428 | 24.76334 | 5007 ft | 99 kts | 356° |
| 2026-04-26 13:06 | -28.84728 | 24.76511 | 4709 ft | 101 kts | 5° |
| 2026-04-26 13:07 | -28.84045 | 24.76525 | 4482 ft | 96 kts | 356° |
| 2026-04-26 13:07 | -28.83401 | 24.76515 | 4278 ft | 88 kts | 359° |
| 2026-04-26 13:07 | -28.82829 | 24.76518 | 4116 ft | 78 kts | 356° |
| 2026-04-26 13:07 | -28.82294 | 24.76518 | 3985 ft | 76 kts | 355° |
| 2026-04-26 13:08 | -28.81791 | 24.76517 | 3921 ft | 66 kts | 354° |
| 2026-04-26 13:08 | -28.81391 | 24.76514 | 3918 ft | 47 kts | 360° |
| 2026-04-26 13:08 | -28.81098 | 24.76513 | 3923 ft | 37 kts | 0° |
| 2026-04-26 13:08 | -28.80855 | 24.76513 | 3927 ft | 34 kts | 359° |
| 2026-04-26 13:09 | -28.80624 | 24.76513 | 3933 ft | 33 kts | 360° |
| 2026-04-26 13:09 | -28.80390 | 24.76512 | 3935 ft | 34 kts | 358° |
| 2026-04-26 13:09 | -28.80219 | 24.76548 | 3937 ft | 19 kts | 38° |
| 2026-04-26 13:09 | -28.80093 | 24.76660 | 3935 ft | 26 kts | 37° |
| 2026-04-26 13:10 | -28.79932 | 24.76802 | 3935 ft | 32 kts | 37° |
| 2026-04-26 13:10 | -28.79747 | 24.76964 | 3935 ft | 35 kts | 39° |
| 2026-04-26 13:10 | -28.79566 | 24.77121 | 3935 ft | 30 kts | 38° |
| 2026-04-26 13:10 | -28.79482 | 24.77235 | 3933 ft | 17 kts | 127° |
| 2026-04-26 13:11 | -28.79499 | 24.77305 | 3930 ft | 0 kts | 90° |